sensor_id;sensor_type;location;lat;lon;timestamp;P1;durP1;ratioP1;P2;durP2;ratioP2
8654;SDS011;13500;52.514;13.462;2022-09-23T00:01:36;4.03;;;3.07;;
8654;SDS011;13500;52.514;13.462;2022-09-23T00:04:04;5.10;;;4.03;;
8654;SDS011;13500;52.514;13.462;2022-09-23T00:06:32;4.50;;;3.23;;
8654;SDS011;13500;52.514;13.462;2022-09-23T00:09:00;5.43;;;3.90;;
8654;SDS011;13500;52.514;13.462;2022-09-23T00:11:28;4.07;;;3.47;;
8654;SDS011;13500;52.514;13.462;2022-09-23T00:13:57;5.40;;;3.43;;
8654;SDS011;13500;52.514;13.462;2022-09-23T00:16:26;4.80;;;3.60;;
8654;SDS011;13500;52.514;13.462;2022-09-23T00:18:57;4.73;;;3.47;;
8654;SDS011;13500;52.514;13.462;2022-09-23T00:21:26;4.57;;;3.50;;
8654;SDS011;13500;52.514;13.462;2022-09-23T00:23:54;5.63;;;3.80;;
8654;SDS011;13500;52.514;13.462;2022-09-23T00:26:22;4.67;;;3.60;;
8654;SDS011;13500;52.514;13.462;2022-09-23T00:28:50;4.73;;;3.67;;
8654;SDS011;13500;52.514;13.462;2022-09-23T00:31:19;4.80;;;3.73;;
8654;SDS011;13500;52.514;13.462;2022-09-23T00:33:51;4.47;;;3.43;;
8654;SDS011;13500;52.514;13.462;2022-09-23T00:36:21;4.83;;;3.53;;
8654;SDS011;13500;52.514;13.462;2022-09-23T00:38:50;6.07;;;3.70;;
8654;SDS011;13500;52.514;13.462;2022-09-23T00:41:18;4.93;;;3.70;;
8654;SDS011;13500;52.514;13.462;2022-09-23T00:43:47;6.67;;;3.70;;
8654;SDS011;13500;52.514;13.462;2022-09-23T00:46:17;4.80;;;3.73;;
8654;SDS011;13500;52.514;13.462;2022-09-23T00:48:48;6.80;;;4.00;;
8654;SDS011;13500;52.514;13.462;2022-09-23T00:51:23;4.83;;;3.60;;
8654;SDS011;13500;52.514;13.462;2022-09-23T00:53:56;4.43;;;3.43;;
8654;SDS011;13500;52.514;13.462;2022-09-23T00:56:24;5.73;;;3.90;;
8654;SDS011;13500;52.514;13.462;2022-09-23T00:58:52;4.30;;;3.20;;
8654;SDS011;13500;52.514;13.462;2022-09-23T01:01:20;5.40;;;3.87;;
8654;SDS011;13500;52.514;13.462;2022-09-23T01:03:50;4.40;;;3.53;;
8654;SDS011;13500;52.514;13.462;2022-09-23T01:06:19;7.37;;;3.30;;
8654;SDS011;13500;52.514;13.462;2022-09-23T01:08:49;4.07;;;3.00;;
8654;SDS011;13500;52.514;13.462;2022-09-23T01:11:22;5.07;;;4.00;;
8654;SDS011;13500;52.514;13.462;2022-09-23T01:14:04;4.90;;;3.43;;
8654;SDS011;13500;52.514;13.462;2022-09-23T01:16:46;6.10;;;3.53;;
8654;SDS011;13500;52.514;13.462;2022-09-23T01:19:25;5.47;;;3.67;;
8654;SDS011;13500;52.514;13.462;2022-09-23T01:22:08;5.50;;;3.40;;
8654;SDS011;13500;52.514;13.462;2022-09-23T01:24:47;6.07;;;3.33;;
8654;SDS011;13500;52.514;13.462;2022-09-23T01:27:49;3.90;;;3.10;;
8654;SDS011;13500;52.514;13.462;2022-09-23T01:30:38;7.83;;;3.73;;
8654;SDS011;13500;52.514;13.462;2022-09-23T01:33:12;4.73;;;3.33;;
8654;SDS011;13500;52.514;13.462;2022-09-23T01:35:48;5.20;;;3.33;;
8654;SDS011;13500;52.514;13.462;2022-09-23T01:38:31;4.83;;;3.00;;
8654;SDS011;13500;52.514;13.462;2022-09-23T01:41:05;6.20;;;4.03;;
8654;SDS011;13500;52.514;13.462;2022-09-23T01:43:45;4.03;;;3.30;;
8654;SDS011;13500;52.514;13.462;2022-09-23T01:46:22;4.13;;;3.33;;
8654;SDS011;13500;52.514;13.462;2022-09-23T01:48:55;3.43;;;2.97;;
8654;SDS011;13500;52.514;13.462;2022-09-23T01:51:29;4.97;;;3.47;;
8654;SDS011;13500;52.514;13.462;2022-09-23T01:54:03;5.50;;;3.07;;
8654;SDS011;13500;52.514;13.462;2022-09-23T01:56:38;4.13;;;3.33;;
8654;SDS011;13500;52.514;13.462;2022-09-23T01:59:10;4.90;;;3.50;;
8654;SDS011;13500;52.514;13.462;2022-09-23T02:01:44;4.70;;;3.50;;
8654;SDS011;13500;52.514;13.462;2022-09-23T02:04:17;4.83;;;3.43;;
8654;SDS011;13500;52.514;13.462;2022-09-23T02:06:50;9.13;;;4.30;;
8654;SDS011;13500;52.514;13.462;2022-09-23T02:09:22;3.93;;;3.30;;
8654;SDS011;13500;52.514;13.462;2022-09-23T02:11:54;5.17;;;3.70;;
8654;SDS011;13500;52.514;13.462;2022-09-23T02:14:27;5.87;;;3.70;;
8654;SDS011;13500;52.514;13.462;2022-09-23T02:16:59;3.97;;;3.17;;
8654;SDS011;13500;52.514;13.462;2022-09-23T02:19:34;4.93;;;3.40;;
8654;SDS011;13500;52.514;13.462;2022-09-23T02:22:11;4.93;;;3.73;;
8654;SDS011;13500;52.514;13.462;2022-09-23T02:24:43;4.33;;;3.43;;
8654;SDS011;13500;52.514;13.462;2022-09-23T02:27:13;5.33;;;3.40;;
8654;SDS011;13500;52.514;13.462;2022-09-23T02:29:48;4.80;;;3.67;;
8654;SDS011;13500;52.514;13.462;2022-09-23T02:32:24;4.73;;;3.50;;
8654;SDS011;13500;52.514;13.462;2022-09-23T02:34:58;4.63;;;3.43;;
8654;SDS011;13500;52.514;13.462;2022-09-23T02:37:35;4.43;;;3.60;;
8654;SDS011;13500;52.514;13.462;2022-09-23T02:40:12;3.90;;;3.27;;
8654;SDS011;13500;52.514;13.462;2022-09-23T02:42:51;4.57;;;3.87;;
8654;SDS011;13500;52.514;13.462;2022-09-23T02:45:32;4.07;;;3.33;;
8654;SDS011;13500;52.514;13.462;2022-09-23T02:48:05;4.00;;;3.50;;
8654;SDS011;13500;52.514;13.462;2022-09-23T02:50:37;4.40;;;3.20;;
8654;SDS011;13500;52.514;13.462;2022-09-23T02:53:05;4.90;;;3.50;;
8654;SDS011;13500;52.514;13.462;2022-09-23T02:55:33;4.20;;;3.60;;
8654;SDS011;13500;52.514;13.462;2022-09-23T02:58:02;5.57;;;3.40;;
8654;SDS011;13500;52.514;13.462;2022-09-23T03:00:34;4.03;;;3.33;;
8654;SDS011;13500;52.514;13.462;2022-09-23T03:03:17;4.33;;;3.50;;
8654;SDS011;13500;52.514;13.462;2022-09-23T03:05:56;3.93;;;3.50;;
8654;SDS011;13500;52.514;13.462;2022-09-23T03:08:29;5.30;;;4.00;;
8654;SDS011;13500;52.514;13.462;2022-09-23T03:11:04;4.90;;;3.57;;
8654;SDS011;13500;52.514;13.462;2022-09-23T03:13:35;4.60;;;3.80;;
8654;SDS011;13500;52.514;13.462;2022-09-23T03:16:21;5.03;;;3.80;;
8654;SDS011;13500;52.514;13.462;2022-09-23T03:18:58;4.47;;;3.50;;
8654;SDS011;13500;52.514;13.462;2022-09-23T03:21:38;5.40;;;3.90;;
8654;SDS011;13500;52.514;13.462;2022-09-23T03:24:10;4.57;;;3.60;;
8654;SDS011;13500;52.514;13.462;2022-09-23T03:26:41;4.13;;;3.10;;
8654;SDS011;13500;52.514;13.462;2022-09-23T03:29:12;6.73;;;3.43;;
8654;SDS011;13500;52.514;13.462;2022-09-23T03:31:42;4.13;;;3.50;;
8654;SDS011;13500;52.514;13.462;2022-09-23T03:34:13;4.97;;;3.63;;
8654;SDS011;13500;52.514;13.462;2022-09-23T03:36:48;4.43;;;3.77;;
8654;SDS011;13500;52.514;13.462;2022-09-23T03:39:22;5.10;;;3.70;;
8654;SDS011;13500;52.514;13.462;2022-09-23T03:41:56;5.90;;;3.57;;
8654;SDS011;13500;52.514;13.462;2022-09-23T03:44:28;4.60;;;3.40;;
8654;SDS011;13500;52.514;13.462;2022-09-23T03:47:03;4.70;;;3.40;;
8654;SDS011;13500;52.514;13.462;2022-09-23T03:49:33;4.37;;;3.57;;
8654;SDS011;13500;52.514;13.462;2022-09-23T03:52:04;5.40;;;3.50;;
8654;SDS011;13500;52.514;13.462;2022-09-23T03:54:32;4.80;;;3.87;;
8654;SDS011;13500;52.514;13.462;2022-09-23T03:57:00;4.07;;;3.43;;
8654;SDS011;13500;52.514;13.462;2022-09-23T03:59:29;6.53;;;3.40;;
8654;SDS011;13500;52.514;13.462;2022-09-23T04:01:57;4.27;;;3.50;;
8654;SDS011;13500;52.514;13.462;2022-09-23T04:04:27;3.93;;;3.33;;
8654;SDS011;13500;52.514;13.462;2022-09-23T04:06:59;6.07;;;3.50;;
8654;SDS011;13500;52.514;13.462;2022-09-23T04:09:27;6.50;;;3.37;;
8654;SDS011;13500;52.514;13.462;2022-09-23T04:11:55;6.07;;;3.47;;
8654;SDS011;13500;52.514;13.462;2022-09-23T04:14:23;4.00;;;3.57;;
8654;SDS011;13500;52.514;13.462;2022-09-23T04:16:51;4.97;;;3.50;;
8654;SDS011;13500;52.514;13.462;2022-09-23T04:19:19;4.67;;;3.47;;
8654;SDS011;13500;52.514;13.462;2022-09-23T04:21:47;5.90;;;3.60;;
8654;SDS011;13500;52.514;13.462;2022-09-23T04:24:17;4.63;;;3.47;;
8654;SDS011;13500;52.514;13.462;2022-09-23T04:26:45;4.97;;;3.47;;
8654;SDS011;13500;52.514;13.462;2022-09-23T04:29:17;4.10;;;3.20;;
8654;SDS011;13500;52.514;13.462;2022-09-23T04:31:45;4.60;;;3.30;;
8654;SDS011;13500;52.514;13.462;2022-09-23T04:34:13;4.17;;;3.40;;
8654;SDS011;13500;52.514;13.462;2022-09-23T04:36:42;6.13;;;3.53;;
8654;SDS011;13500;52.514;13.462;2022-09-23T04:39:11;6.37;;;3.20;;
8654;SDS011;13500;52.514;13.462;2022-09-23T04:41:41;6.03;;;3.63;;
8654;SDS011;13500;52.514;13.462;2022-09-23T04:44:10;4.40;;;3.67;;
8654;SDS011;13500;52.514;13.462;2022-09-23T04:46:38;5.60;;;3.00;;
8654;SDS011;13500;52.514;13.462;2022-09-23T04:49:06;3.97;;;3.30;;
8654;SDS011;13500;52.514;13.462;2022-09-23T04:51:34;3.67;;;3.23;;
8654;SDS011;13500;52.514;13.462;2022-09-23T04:54:02;4.93;;;3.23;;
8654;SDS011;13500;52.514;13.462;2022-09-23T04:56:31;4.87;;;3.37;;
8654;SDS011;13500;52.514;13.462;2022-09-23T04:59:00;3.93;;;3.17;;
8654;SDS011;13500;52.514;13.462;2022-09-23T05:01:29;6.17;;;3.47;;
8654;SDS011;13500;52.514;13.462;2022-09-23T05:04:00;4.57;;;3.20;;
8654;SDS011;13500;52.514;13.462;2022-09-23T05:06:30;4.17;;;3.00;;
8654;SDS011;13500;52.514;13.462;2022-09-23T05:09:00;4.13;;;2.93;;
8654;SDS011;13500;52.514;13.462;2022-09-23T05:11:30;5.40;;;3.30;;
8654;SDS011;13500;52.514;13.462;2022-09-23T05:13:59;5.23;;;3.70;;
8654;SDS011;13500;52.514;13.462;2022-09-23T05:16:29;6.67;;;3.47;;
8654;SDS011;13500;52.514;13.462;2022-09-23T05:18:57;3.73;;;3.03;;
8654;SDS011;13500;52.514;13.462;2022-09-23T05:21:25;4.03;;;3.20;;
8654;SDS011;13500;52.514;13.462;2022-09-23T05:23:54;3.60;;;2.90;;
8654;SDS011;13500;52.514;13.462;2022-09-23T05:26:26;6.23;;;3.27;;
8654;SDS011;13500;52.514;13.462;2022-09-23T05:28:55;3.30;;;3.00;;
8654;SDS011;13500;52.514;13.462;2022-09-23T05:31:26;4.97;;;3.27;;
8654;SDS011;13500;52.514;13.462;2022-09-23T05:33:56;4.73;;;3.00;;
8654;SDS011;13500;52.514;13.462;2022-09-23T05:36:25;3.70;;;3.00;;
8654;SDS011;13500;52.514;13.462;2022-09-23T05:39:01;3.77;;;3.03;;
8654;SDS011;13500;52.514;13.462;2022-09-23T05:41:29;10.03;;;3.20;;
8654;SDS011;13500;52.514;13.462;2022-09-23T05:43:59;6.37;;;3.10;;
8654;SDS011;13500;52.514;13.462;2022-09-23T05:46:29;3.87;;;2.80;;
8654;SDS011;13500;52.514;13.462;2022-09-23T05:48:58;4.90;;;3.57;;
8654;SDS011;13500;52.514;13.462;2022-09-23T05:51:29;4.10;;;3.20;;
8654;SDS011;13500;52.514;13.462;2022-09-23T05:53:58;4.10;;;3.10;;
8654;SDS011;13500;52.514;13.462;2022-09-23T05:56:28;3.67;;;3.00;;
8654;SDS011;13500;52.514;13.462;2022-09-23T05:58:58;4.67;;;3.17;;
8654;SDS011;13500;52.514;13.462;2022-09-23T06:01:29;4.30;;;3.60;;
8654;SDS011;13500;52.514;13.462;2022-09-23T06:04:00;3.73;;;3.00;;
8654;SDS011;13500;52.514;13.462;2022-09-23T06:06:30;3.53;;;3.20;;
8654;SDS011;13500;52.514;13.462;2022-09-23T06:08:59;3.77;;;2.90;;
8654;SDS011;13500;52.514;13.462;2022-09-23T06:11:28;3.80;;;2.93;;
8654;SDS011;13500;52.514;13.462;2022-09-23T06:13:57;6.67;;;3.07;;
8654;SDS011;13500;52.514;13.462;2022-09-23T06:16:30;3.77;;;3.00;;
8654;SDS011;13500;52.514;13.462;2022-09-23T06:18:59;4.17;;;3.00;;
8654;SDS011;13500;52.514;13.462;2022-09-23T06:21:32;3.33;;;3.03;;
8654;SDS011;13500;52.514;13.462;2022-09-23T06:24:01;4.00;;;3.37;;
8654;SDS011;13500;52.514;13.462;2022-09-23T06:26:29;3.60;;;2.83;;
8654;SDS011;13500;52.514;13.462;2022-09-23T06:29:00;5.77;;;3.23;;
8654;SDS011;13500;52.514;13.462;2022-09-23T06:31:31;3.33;;;2.83;;
8654;SDS011;13500;52.514;13.462;2022-09-23T06:33:59;6.20;;;3.40;;
8654;SDS011;13500;52.514;13.462;2022-09-23T06:36:42;6.37;;;2.97;;
8654;SDS011;13500;52.514;13.462;2022-09-23T06:39:12;4.90;;;3.53;;
8654;SDS011;13500;52.514;13.462;2022-09-23T06:41:41;4.43;;;3.40;;
8654;SDS011;13500;52.514;13.462;2022-09-23T06:44:10;6.27;;;3.60;;
8654;SDS011;13500;52.514;13.462;2022-09-23T06:46:40;5.10;;;3.30;;
8654;SDS011;13500;52.514;13.462;2022-09-23T06:49:08;4.93;;;3.47;;
8654;SDS011;13500;52.514;13.462;2022-09-23T06:51:38;8.37;;;3.73;;
8654;SDS011;13500;52.514;13.462;2022-09-23T06:54:06;4.43;;;3.63;;
8654;SDS011;13500;52.514;13.462;2022-09-23T06:56:35;5.13;;;3.63;;
8654;SDS011;13500;52.514;13.462;2022-09-23T06:59:05;7.57;;;3.90;;
8654;SDS011;13500;52.514;13.462;2022-09-23T07:01:35;8.30;;;3.93;;
8654;SDS011;13500;52.514;13.462;2022-09-23T07:04:05;5.07;;;3.60;;
8654;SDS011;13500;52.514;13.462;2022-09-23T07:06:33;4.47;;;3.60;;
8654;SDS011;13500;52.514;13.462;2022-09-23T07:09:01;6.80;;;3.60;;
8654;SDS011;13500;52.514;13.462;2022-09-23T07:11:30;5.13;;;4.13;;
8654;SDS011;13500;52.514;13.462;2022-09-23T07:13:58;4.13;;;3.40;;
8654;SDS011;13500;52.514;13.462;2022-09-23T07:16:26;4.67;;;3.80;;
8654;SDS011;13500;52.514;13.462;2022-09-23T07:18:54;3.93;;;3.53;;
8654;SDS011;13500;52.514;13.462;2022-09-23T07:21:23;4.03;;;3.30;;
8654;SDS011;13500;52.514;13.462;2022-09-23T07:23:53;6.20;;;3.33;;
8654;SDS011;13500;52.514;13.462;2022-09-23T07:26:24;4.63;;;3.63;;
8654;SDS011;13500;52.514;13.462;2022-09-23T07:28:52;10.83;;;8.77;;
8654;SDS011;13500;52.514;13.462;2022-09-23T07:31:22;3.90;;;3.40;;
8654;SDS011;13500;52.514;13.462;2022-09-23T07:34:04;4.13;;;3.50;;
8654;SDS011;13500;52.514;13.462;2022-09-23T07:36:34;3.63;;;3.07;;
8654;SDS011;13500;52.514;13.462;2022-09-23T07:39:06;3.70;;;3.30;;
8654;SDS011;13500;52.514;13.462;2022-09-23T07:41:34;4.10;;;2.97;;
8654;SDS011;13500;52.514;13.462;2022-09-23T07:44:03;4.77;;;3.20;;
8654;SDS011;13500;52.514;13.462;2022-09-23T07:46:32;4.53;;;3.50;;
8654;SDS011;13500;52.514;13.462;2022-09-23T07:49:03;4.20;;;3.27;;
8654;SDS011;13500;52.514;13.462;2022-09-23T07:51:32;9.80;;;4.23;;
8654;SDS011;13500;52.514;13.462;2022-09-23T07:54:03;4.03;;;3.63;;
8654;SDS011;13500;52.514;13.462;2022-09-23T07:56:32;3.93;;;2.93;;
8654;SDS011;13500;52.514;13.462;2022-09-23T07:59:01;4.43;;;3.80;;
8654;SDS011;13500;52.514;13.462;2022-09-23T08:01:30;3.73;;;3.27;;
8654;SDS011;13500;52.514;13.462;2022-09-23T08:04:00;3.87;;;3.47;;
8654;SDS011;13500;52.514;13.462;2022-09-23T08:06:30;5.33;;;3.40;;
8654;SDS011;13500;52.514;13.462;2022-09-23T08:09:00;3.83;;;3.27;;
8654;SDS011;13500;52.514;13.462;2022-09-23T08:11:28;4.07;;;3.60;;
8654;SDS011;13500;52.514;13.462;2022-09-23T08:13:56;4.93;;;3.53;;
8654;SDS011;13500;52.514;13.462;2022-09-23T08:16:24;6.00;;;3.93;;
8654;SDS011;13500;52.514;13.462;2022-09-23T08:18:52;3.93;;;3.13;;
8654;SDS011;13500;52.514;13.462;2022-09-23T08:21:21;4.03;;;3.63;;
8654;SDS011;13500;52.514;13.462;2022-09-23T08:23:49;4.20;;;3.80;;
8654;SDS011;13500;52.514;13.462;2022-09-23T08:26:19;4.40;;;3.07;;
8654;SDS011;13500;52.514;13.462;2022-09-23T08:28:48;3.03;;;2.83;;
8654;SDS011;13500;52.514;13.462;2022-09-23T08:31:19;3.40;;;3.10;;
8654;SDS011;13500;52.514;13.462;2022-09-23T08:33:52;3.43;;;3.13;;
8654;SDS011;13500;52.514;13.462;2022-09-23T08:36:21;15.77;;;11.63;;
8654;SDS011;13500;52.514;13.462;2022-09-23T08:38:50;18.77;;;12.67;;
8654;SDS011;13500;52.514;13.462;2022-09-23T08:41:22;7.87;;;3.57;;
8654;SDS011;13500;52.514;13.462;2022-09-23T08:43:56;3.47;;;3.17;;
8654;SDS011;13500;52.514;13.462;2022-09-23T08:46:30;3.10;;;2.80;;
8654;SDS011;13500;52.514;13.462;2022-09-23T08:49:03;4.17;;;3.77;;
8654;SDS011;13500;52.514;13.462;2022-09-23T08:51:33;4.50;;;3.37;;
8654;SDS011;13500;52.514;13.462;2022-09-23T08:54:06;3.60;;;3.30;;
8654;SDS011;13500;52.514;13.462;2022-09-23T08:56:37;5.63;;;4.13;;
8654;SDS011;13500;52.514;13.462;2022-09-23T08:59:07;8.03;;;6.87;;
8654;SDS011;13500;52.514;13.462;2022-09-23T09:01:40;4.87;;;4.30;;
8654;SDS011;13500;52.514;13.462;2022-09-23T09:04:20;3.83;;;3.07;;
8654;SDS011;13500;52.514;13.462;2022-09-23T09:06:51;2.63;;;2.40;;
8654;SDS011;13500;52.514;13.462;2022-09-23T09:09:43;3.43;;;2.87;;
8654;SDS011;13500;52.514;13.462;2022-09-23T09:12:17;3.30;;;2.60;;
8654;SDS011;13500;52.514;13.462;2022-09-23T09:14:50;2.50;;;2.30;;
8654;SDS011;13500;52.514;13.462;2022-09-23T09:17:26;2.33;;;2.13;;
8654;SDS011;13500;52.514;13.462;2022-09-23T09:20:02;2.97;;;2.40;;
8654;SDS011;13500;52.514;13.462;2022-09-23T09:22:47;3.20;;;2.50;;
8654;SDS011;13500;52.514;13.462;2022-09-23T09:25:23;2.40;;;2.20;;
8654;SDS011;13500;52.514;13.462;2022-09-23T09:28:01;2.10;;;1.90;;
8654;SDS011;13500;52.514;13.462;2022-09-23T09:30:36;2.23;;;2.03;;
8654;SDS011;13500;52.514;13.462;2022-09-23T09:33:05;2.50;;;2.30;;
8654;SDS011;13500;52.514;13.462;2022-09-23T09:35:41;2.40;;;2.20;;
8654;SDS011;13500;52.514;13.462;2022-09-23T09:38:23;3.73;;;2.20;;
8654;SDS011;13500;52.514;13.462;2022-09-23T09:40:51;2.27;;;2.07;;
8654;SDS011;13500;52.514;13.462;2022-09-23T09:43:23;3.47;;;2.20;;
8654;SDS011;13500;52.514;13.462;2022-09-23T09:45:55;2.50;;;2.20;;
8654;SDS011;13500;52.514;13.462;2022-09-23T09:48:30;2.13;;;1.93;;
8654;SDS011;13500;52.514;13.462;2022-09-23T09:51:17;2.10;;;1.90;;
8654;SDS011;13500;52.514;13.462;2022-09-23T09:53:47;2.20;;;2.00;;
8654;SDS011;13500;52.514;13.462;2022-09-23T09:56:18;1.73;;;1.60;;
8654;SDS011;13500;52.514;13.462;2022-09-23T09:58:54;2.00;;;1.70;;
8654;SDS011;13500;52.514;13.462;2022-09-23T10:01:26;1.93;;;1.83;;
8654;SDS011;13500;52.514;13.462;2022-09-23T10:03:57;2.90;;;1.90;;
8654;SDS011;13500;52.514;13.462;2022-09-23T10:06:28;2.13;;;1.60;;
8654;SDS011;13500;52.514;13.462;2022-09-23T10:09:02;2.10;;;1.90;;
8654;SDS011;13500;52.514;13.462;2022-09-23T10:11:42;1.90;;;1.80;;
8654;SDS011;13500;52.514;13.462;2022-09-23T10:14:30;1.93;;;1.83;;
8654;SDS011;13500;52.514;13.462;2022-09-23T10:17:02;2.00;;;1.80;;
8654;SDS011;13500;52.514;13.462;2022-09-23T10:19:31;1.97;;;1.50;;
8654;SDS011;13500;52.514;13.462;2022-09-23T10:22:02;1.50;;;1.40;;
8654;SDS011;13500;52.514;13.462;2022-09-23T10:24:42;2.33;;;1.60;;
8654;SDS011;13500;52.514;13.462;2022-09-23T10:27:14;1.70;;;1.60;;
8654;SDS011;13500;52.514;13.462;2022-09-23T10:29:54;1.60;;;1.33;;
8654;SDS011;13500;52.514;13.462;2022-09-23T10:32:24;3.53;;;1.70;;
8654;SDS011;13500;52.514;13.462;2022-09-23T10:34:55;1.77;;;1.67;;
8654;SDS011;13500;52.514;13.462;2022-09-23T10:37:26;3.63;;;3.07;;
8654;SDS011;13500;52.514;13.462;2022-09-23T10:39:58;18.60;;;8.03;;
8654;SDS011;13500;52.514;13.462;2022-09-23T10:42:49;2.37;;;1.73;;
8654;SDS011;13500;52.514;13.462;2022-09-23T10:45:43;1.30;;;1.20;;
8654;SDS011;13500;52.514;13.462;2022-09-23T10:48:35;1.53;;;1.43;;
8654;SDS011;13500;52.514;13.462;2022-09-23T10:51:13;1.67;;;1.53;;
8654;SDS011;13500;52.514;13.462;2022-09-23T10:53:52;1.40;;;1.30;;
8654;SDS011;13500;52.514;13.462;2022-09-23T10:56:29;1.93;;;1.40;;
8654;SDS011;13500;52.514;13.462;2022-09-23T10:59:12;1.33;;;1.23;;
8654;SDS011;13500;52.514;13.462;2022-09-23T11:02:13;1.10;;;1.10;;
8654;SDS011;13500;52.514;13.462;2022-09-23T11:05:04;1.53;;;1.30;;
8654;SDS011;13500;52.514;13.462;2022-09-23T11:07:58;1.23;;;1.13;;
8654;SDS011;13500;52.514;13.462;2022-09-23T11:10:44;2.03;;;1.40;;
8654;SDS011;13500;52.514;13.462;2022-09-23T11:13:26;1.47;;;1.30;;
8654;SDS011;13500;52.514;13.462;2022-09-23T11:16:11;2.23;;;1.50;;
8654;SDS011;13500;52.514;13.462;2022-09-23T11:18:51;1.57;;;1.40;;
8654;SDS011;13500;52.514;13.462;2022-09-23T11:21:41;1.23;;;1.17;;
8654;SDS011;13500;52.514;13.462;2022-09-23T11:24:25;1.50;;;1.40;;
8654;SDS011;13500;52.514;13.462;2022-09-23T11:27:06;1.57;;;1.47;;
8654;SDS011;13500;52.514;13.462;2022-09-23T11:32:54;1.37;;;1.27;;
8654;SDS011;13500;52.514;13.462;2022-09-23T11:35:35;1.33;;;1.10;;
8654;SDS011;13500;52.514;13.462;2022-09-23T11:38:09;2.83;;;1.60;;
8654;SDS011;13500;52.514;13.462;2022-09-23T11:40:41;2.00;;;1.70;;
8654;SDS011;13500;52.514;13.462;2022-09-23T11:43:13;1.30;;;1.20;;
8654;SDS011;13500;52.514;13.462;2022-09-23T11:45:48;1.57;;;1.30;;
8654;SDS011;13500;52.514;13.462;2022-09-23T11:48:24;1.90;;;1.60;;
8654;SDS011;13500;52.514;13.462;2022-09-23T11:50:58;2.30;;;2.10;;
8654;SDS011;13500;52.514;13.462;2022-09-23T11:53:33;1.63;;;1.53;;
8654;SDS011;13500;52.514;13.462;2022-09-23T11:56:11;1.83;;;1.73;;
8654;SDS011;13500;52.514;13.462;2022-09-23T11:58:59;1.70;;;1.60;;
8654;SDS011;13500;52.514;13.462;2022-09-23T12:01:33;2.20;;;1.60;;
8654;SDS011;13500;52.514;13.462;2022-09-23T12:04:11;1.57;;;1.30;;
8654;SDS011;13500;52.514;13.462;2022-09-23T12:06:48;1.40;;;1.30;;
8654;SDS011;13500;52.514;13.462;2022-09-23T12:09:21;3.03;;;1.47;;
8654;SDS011;13500;52.514;13.462;2022-09-23T12:12:16;1.40;;;1.30;;
8654;SDS011;13500;52.514;13.462;2022-09-23T12:14:54;1.40;;;1.30;;
8654;SDS011;13500;52.514;13.462;2022-09-23T12:17:35;1.37;;;1.27;;
8654;SDS011;13500;52.514;13.462;2022-09-23T12:23:33;1.73;;;1.57;;
8654;SDS011;13500;52.514;13.462;2022-09-23T12:26:18;1.60;;;1.33;;
8654;SDS011;13500;52.514;13.462;2022-09-23T12:28:48;1.40;;;1.30;;
8654;SDS011;13500;52.514;13.462;2022-09-23T12:31:19;1.77;;;1.40;;
8654;SDS011;13500;52.514;13.462;2022-09-23T12:33:56;2.10;;;1.30;;
8654;SDS011;13500;52.514;13.462;2022-09-23T12:36:27;1.60;;;1.40;;
8654;SDS011;13500;52.514;13.462;2022-09-23T12:39:02;1.77;;;1.57;;
8654;SDS011;13500;52.514;13.462;2022-09-23T12:41:33;1.50;;;1.30;;
8654;SDS011;13500;52.514;13.462;2022-09-23T12:44:12;1.50;;;1.40;;
8654;SDS011;13500;52.514;13.462;2022-09-23T12:49:54;1.67;;;1.30;;
8654;SDS011;13500;52.514;13.462;2022-09-23T12:52:24;1.80;;;1.70;;
8654;SDS011;13500;52.514;13.462;2022-09-23T12:54:56;1.40;;;1.30;;
8654;SDS011;13500;52.514;13.462;2022-09-23T12:57:40;1.70;;;1.40;;
8654;SDS011;13500;52.514;13.462;2022-09-23T13:00:21;1.67;;;1.13;;
8654;SDS011;13500;52.514;13.462;2022-09-23T13:02:52;2.63;;;1.87;;
8654;SDS011;13500;52.514;13.462;2022-09-23T13:05:41;1.97;;;1.30;;
8654;SDS011;13500;52.514;13.462;2022-09-23T13:08:30;1.50;;;1.40;;
8654;SDS011;13500;52.514;13.462;2022-09-23T13:11:01;1.60;;;1.50;;
8654;SDS011;13500;52.514;13.462;2022-09-23T13:13:31;1.60;;;1.50;;
8654;SDS011;13500;52.514;13.462;2022-09-23T13:16:09;1.63;;;1.40;;
8654;SDS011;13500;52.514;13.462;2022-09-23T13:18:49;1.60;;;1.50;;
8654;SDS011;13500;52.514;13.462;2022-09-23T13:24:33;1.40;;;1.23;;
8654;SDS011;13500;52.514;13.462;2022-09-23T13:27:20;1.40;;;1.30;;
8654;SDS011;13500;52.514;13.462;2022-09-23T13:29:55;1.80;;;1.50;;
8654;SDS011;13500;52.514;13.462;2022-09-23T13:32:27;3.90;;;1.50;;
8654;SDS011;13500;52.514;13.462;2022-09-23T13:34:59;1.50;;;1.40;;
8654;SDS011;13500;52.514;13.462;2022-09-23T13:37:30;1.30;;;1.20;;
8654;SDS011;13500;52.514;13.462;2022-09-23T13:40:08;1.30;;;1.20;;
8654;SDS011;13500;52.514;13.462;2022-09-23T13:42:44;2.83;;;1.80;;
8654;SDS011;13500;52.514;13.462;2022-09-23T13:45:17;1.60;;;1.50;;
8654;SDS011;13500;52.514;13.462;2022-09-23T13:47:47;1.43;;;1.33;;
8654;SDS011;13500;52.514;13.462;2022-09-23T13:50:17;1.50;;;1.40;;
8654;SDS011;13500;52.514;13.462;2022-09-23T13:52:50;2.77;;;1.30;;
8654;SDS011;13500;52.514;13.462;2022-09-23T13:55:23;1.67;;;1.50;;
8654;SDS011;13500;52.514;13.462;2022-09-23T13:57:58;1.40;;;1.30;;
8654;SDS011;13500;52.514;13.462;2022-09-23T14:00:31;2.80;;;1.37;;
8654;SDS011;13500;52.514;13.462;2022-09-23T14:03:02;1.93;;;1.50;;
8654;SDS011;13500;52.514;13.462;2022-09-23T14:05:42;1.47;;;1.27;;
8654;SDS011;13500;52.514;13.462;2022-09-23T14:08:14;1.77;;;1.67;;
8654;SDS011;13500;52.514;13.462;2022-09-23T14:10:42;2.97;;;2.03;;
8654;SDS011;13500;52.514;13.462;2022-09-23T14:13:17;3.00;;;2.40;;
8654;SDS011;13500;52.514;13.462;2022-09-23T14:15:52;1.43;;;1.33;;
8654;SDS011;13500;52.514;13.462;2022-09-23T14:18:27;1.73;;;1.63;;
8654;SDS011;13500;52.514;13.462;2022-09-23T14:20:59;1.57;;;1.30;;
8654;SDS011;13500;52.514;13.462;2022-09-23T14:23:28;1.83;;;1.40;;
8654;SDS011;13500;52.514;13.462;2022-09-23T14:25:56;1.80;;;1.40;;
8654;SDS011;13500;52.514;13.462;2022-09-23T14:28:26;1.43;;;1.30;;
8654;SDS011;13500;52.514;13.462;2022-09-23T14:30:55;2.03;;;1.67;;
8654;SDS011;13500;52.514;13.462;2022-09-23T14:33:25;1.10;;;1.00;;
8654;SDS011;13500;52.514;13.462;2022-09-23T14:35:55;1.63;;;1.50;;
8654;SDS011;13500;52.514;13.462;2022-09-23T14:38:29;1.00;;;1.00;;
8654;SDS011;13500;52.514;13.462;2022-09-23T14:41:17;1.90;;;1.47;;
8654;SDS011;13500;52.514;13.462;2022-09-23T14:43:54;1.30;;;1.20;;
8654;SDS011;13500;52.514;13.462;2022-09-23T14:46:25;2.43;;;1.70;;
8654;SDS011;13500;52.514;13.462;2022-09-23T14:48:55;1.70;;;1.60;;
8654;SDS011;13500;52.514;13.462;2022-09-23T14:51:28;2.00;;;1.60;;
8654;SDS011;13500;52.514;13.462;2022-09-23T14:56:56;1.00;;;1.00;;
8654;SDS011;13500;52.514;13.462;2022-09-23T14:59:26;1.60;;;1.50;;
8654;SDS011;13500;52.514;13.462;2022-09-23T15:01:58;3.57;;;1.60;;
8654;SDS011;13500;52.514;13.462;2022-09-23T15:04:27;1.83;;;1.57;;
8654;SDS011;13500;52.514;13.462;2022-09-23T15:06:58;1.63;;;1.30;;
8654;SDS011;13500;52.514;13.462;2022-09-23T15:09:30;1.70;;;1.30;;
8654;SDS011;13500;52.514;13.462;2022-09-23T15:12:03;1.80;;;1.37;;
8654;SDS011;13500;52.514;13.462;2022-09-23T15:14:35;1.50;;;1.40;;
8654;SDS011;13500;52.514;13.462;2022-09-23T15:17:15;2.00;;;1.50;;
8654;SDS011;13500;52.514;13.462;2022-09-23T15:19:58;1.20;;;1.10;;
8654;SDS011;13500;52.514;13.462;2022-09-23T15:22:28;2.10;;;1.90;;
8654;SDS011;13500;52.514;13.462;2022-09-23T15:25:09;6.23;;;2.47;;
8654;SDS011;13500;52.514;13.462;2022-09-23T15:27:54;2.17;;;1.83;;
8654;SDS011;13500;52.514;13.462;2022-09-23T15:30:25;2.00;;;1.30;;
8654;SDS011;13500;52.514;13.462;2022-09-23T15:32:53;1.43;;;1.30;;
8654;SDS011;13500;52.514;13.462;2022-09-23T15:35:22;1.50;;;1.40;;
8654;SDS011;13500;52.514;13.462;2022-09-23T15:37:53;1.40;;;1.30;;
8654;SDS011;13500;52.514;13.462;2022-09-23T15:40:25;1.50;;;1.40;;